Angelica, New York
Current Conditions -  °F | °C
As of 12:56 PM on Saturday 25 Oct 2014 (Local Time) from KELZ Reporting Station
Broken Clouds Broken Clouds  
Wind Chill: 60°   Ceiling: 6500
Heat Index: 60°   Visibility: 10mi
Dew Point: 42°   Wind: 16mph
Humidity: 51%   Direction: 250°WSW
Pressure: 29.75"   Gusts: 26mph
Location:  42.31°N, 78.02°W
Report Text: KELZ 251656Z AUTO 25014G23KT 10SM BKN065 16/06 A2975 RMK AO2 PK WND 25026/1637 SLP076 T01560056
Loading
Personal Weather Stations






























Interactive Weather Map New forecast layout! Learn more

10-Day Weather Forecast

Advertisements
Track Severe Weather on mobile